Time;durP1;ratioP1;P1;durP2;ratioP2;P2;SDS_P1;SDS_P2;PMS_P1;PMS_P2;Temp;Humidity;BMP_temperature;BMP_pressure;BME280_temperature;BME280_humidity;BME280_pressure;Samples;Min_cycle;Max_cycle;Signal;HPM_P1;HPM_P2
2022/03/11 00:02:04;;;;;;;11.00;5.80;;;;;;;0.71;67.30;101780.08;108095;1279;72474;-69
2022/03/11 00:04:37;;;;;;;13.30;6.30;;;;;;;0.66;67.06;101783.33;108224;1277;73366;-70
2022/03/11 00:07:03;;;;;;;13.50;6.20;;;;;;;0.60;67.38;101782.95;108249;1277;59928;-69
2022/03/11 00:09:30;;;;;;;13.10;6.60;;;;;;;0.54;67.58;101778.91;108224;1277;60603;-71
2022/03/11 00:11:57;;;;;;;15.60;7.50;;;;;;;0.49;67.80;101776.25;108251;1277;75896;-69
2022/03/11 00:14:24;;;;;;;12.90;6.20;;;;;;;0.43;67.93;101781.59;107769;1279;71724;-69
2022/03/11 00:16:50;;;;;;;12.00;5.90;;;;;;;0.38;67.95;101778.91;108176;1277;74129;-70
2022/03/11 00:19:17;;;;;;;12.20;6.10;;;;;;;0.33;68.17;101778.80;108063;1277;61439;-70
2022/03/11 00:21:43;;;;;;;9.80;4.90;;;;;;;0.28;68.04;101777.69;108243;1277;61627;-70
2022/03/11 00:24:10;;;;;;;12.80;6.30;;;;;;;0.24;68.67;101779.98;108195;1277;60679;-70
2022/03/11 00:26:36;;;;;;;13.40;6.50;;;;;;;0.19;68.91;101784.08;108135;1277;71944;-71
2022/03/11 00:29:02;;;;;;;11.60;5.60;;;;;;;0.15;69.19;101785.14;108205;1277;60343;-70
2022/03/11 00:31:29;;;;;;;8.00;4.50;;;;;;;0.11;69.44;101786.95;108268;1277;60877;-70
2022/03/11 00:33:59;;;;;;;9.90;4.70;;;;;;;0.08;70.01;101784.84;108103;1278;60039;-70
2022/03/11 00:36:32;;;;;;;11.40;5.50;;;;;;;0.06;70.13;101781.82;108255;1277;76681;-70
2022/03/11 00:38:58;;;;;;;12.20;6.10;;;;;;;0.05;70.60;101776.67;108051;1277;71366;-69
2022/03/11 00:41:25;;;;;;;14.30;5.80;;;;;;;0.07;70.60;101780.39;108223;1277;73057;-70
2022/03/11 00:43:53;;;;;;;11.70;5.70;;;;;;;0.09;70.25;101776.63;108217;1274;61272;-71
2022/03/11 00:46:22;;;;;;;14.00;7.20;;;;;;;0.10;70.25;101776.38;108174;1278;60618;-70
2022/03/11 00:48:49;;;;;;;15.00;5.90;;;;;;;0.10;69.96;101781.07;108029;1280;76774;-70
2022/03/11 00:51:15;;;;;;;9.90;5.10;;;;;;;0.10;70.03;101785.60;108278;1274;72351;-69
2022/03/11 00:53:42;;;;;;;13.90;5.10;;;;;;;0.11;69.89;101785.57;108080;1277;73423;-71
2022/03/11 00:56:08;;;;;;;11.60;5.90;;;;;;;0.11;69.78;101783.45;107996;1279;61190;-70
2022/03/11 00:58:35;;;;;;;10.80;5.60;;;;;;;0.10;69.78;101786.51;108251;1277;60060;-69
2022/03/11 01:01:05;;;;;;;14.50;6.50;;;;;;;0.07;69.59;101783.33;108081;1277;60771;-69
2022/03/11 01:03:32;;;;;;;11.10;6.20;;;;;;;0.04;69.69;101784.20;108221;1277;71480;-70
2022/03/11 01:05:59;;;;;;;10.20;5.00;;;;;;;-0.01;69.65;101781.81;108216;1277;71871;-70
2022/03/11 01:08:25;;;;;;;8.80;4.50;;;;;;;-0.04;69.56;101782.16;108076;1279;60140;-71
2022/03/11 01:10:53;;;;;;;12.10;5.20;;;;;;;-0.09;69.82;101782.42;108198;1277;60601;-69
2022/03/11 01:13:19;;;;;;;13.70;5.50;;;;;;;-0.15;69.91;101780.62;108138;1279;75733;-71
2022/03/11 01:15:46;;;;;;;8.50;4.50;;;;;;;-0.20;69.81;101778.64;108281;1277;59979;-70
2022/03/11 01:18:13;;;;;;;9.40;5.10;;;;;;;-0.25;70.12;101780.95;108050;1279;72910;-69
2022/03/11 01:20:45;;;;;;;10.10;4.70;;;;;;;-0.28;70.28;101781.84;108216;1277;60832;-69
2022/03/11 01:23:19;;;;;;;15.40;6.00;;;;;;;-0.33;70.35;101778.06;108144;1275;60938;-69
2022/03/11 01:25:45;;;;;;;10.90;6.00;;;;;;;-0.39;70.22;101772.45;108192;1277;75983;-70
2022/03/11 01:28:13;;;;;;;9.30;5.50;;;;;;;-0.44;70.68;101768.20;108251;1277;71559;-70
2022/03/11 01:30:45;;;;;;;10.30;4.80;;;;;;;-0.48;70.63;101771.36;108135;1277;73220;-71
2022/03/11 01:33:22;;;;;;;12.00;5.30;;;;;;;-0.51;71.12;101766.64;107840;1277;60108;-71
2022/03/11 01:35:50;;;;;;;14.70;5.70;;;;;;;-0.54;71.07;101766.94;107784;1278;60285;-70
2022/03/11 01:38:17;;;;;;;12.00;5.30;;;;;;;-0.56;71.15;101769.32;108147;1277;76168;-70
2022/03/11 01:40:56;;;;;;;7.70;4.30;;;;;;;-0.61;71.19;101759.50;107837;1278;68699;-71
2022/03/11 01:43:23;;;;;;;9.20;3.50;;;;;;;-0.58;71.13;101761.75;107965;1277;74275;-69
2022/03/11 01:45:54;;;;;;;7.80;4.20;;;;;;;-0.59;71.20;101759.73;107979;1277;61009;-68
2022/03/11 01:48:42;;;;;;;11.30;4.80;;;;;;;-0.58;71.14;101755.04;108223;1277;60607;-69
2022/03/11 01:51:12;;;;;;;11.20;5.10;;;;;;;-0.59;71.01;101749.32;108005;1279;75724;-69
2022/03/11 01:53:39;;;;;;;12.20;5.20;;;;;;;-0.58;70.74;101746.64;108069;1280;72576;-69
2022/03/11 01:56:06;;;;;;;8.90;4.10;;;;;;;-0.57;70.67;101741.23;107991;1279;73134;-69
2022/03/11 01:58:32;;;;;;;9.10;4.80;;;;;;;-0.57;70.48;101734.11;108040;1280;60034;-70
2022/03/11 02:00:59;;;;;;;13.00;5.80;;;;;;;-0.58;70.48;101733.09;107992;1279;61151;-70
2022/03/11 02:03:26;;;;;;;11.70;5.00;;;;;;;-0.58;70.16;101730.14;108029;1280;75857;-69
2022/03/11 02:06:02;;;;;;;7.80;4.10;;;;;;;-0.60;70.29;101730.61;108055;1279;71402;-69
2022/03/11 02:08:31;;;;;;;10.20;4.80;;;;;;;-0.63;70.30;101720.85;108055;1280;73961;-69
2022/03/11 02:11:06;;;;;;;10.30;4.40;;;;;;;-0.65;70.26;101722.86;107958;1280;61158;-69
2022/03/11 02:13:43;;;;;;;11.60;4.30;;;;;;;-0.68;70.28;101722.49;107771;1280;60034;-70
2022/03/11 02:16:18;;;;;;;9.80;4.50;;;;;;;-0.71;70.59;101723.70;108047;1279;75847;-71
2022/03/11 02:18:46;;;;;;;12.30;5.30;;;;;;;-0.75;70.54;101721.48;108029;1279;71439;-70
2022/03/11 02:21:14;;;;;;;9.80;4.90;;;;;;;-0.80;70.66;101719.11;108130;1270;72851;-70
2022/03/11 02:23:52;;;;;;;7.40;3.30;;;;;;;-0.83;70.59;101713.52;108185;1277;60869;-71
2022/03/11 02:26:20;;;;;;;9.90;3.90;;;;;;;-0.85;70.74;101711.70;108224;1277;61364;-70
2022/03/11 02:28:49;;;;;;;11.00;5.00;;;;;;;-0.87;70.70;101715.80;108172;1277;76911;-70
2022/03/11 02:31:18;;;;;;;10.80;4.60;;;;;;;-0.90;70.71;101712.09;108219;1275;71717;-71
2022/03/11 02:33:45;;;;;;;10.30;4.40;;;;;;;-0.91;70.88;101715.11;108268;1276;72837;-71
2022/03/11 02:36:14;;;;;;;8.90;4.10;;;;;;;-0.91;70.53;101711.30;108275;1277;61290;-70
2022/03/11 02:38:41;;;;;;;12.20;5.30;;;;;;;-0.92;70.58;101710.31;108265;1277;61619;-70
2022/03/11 02:41:08;;;;;;;10.60;4.60;;;;;;;-0.92;70.56;101713.10;108279;1277;76952;-69
2022/03/11 02:43:36;;;;;;;8.30;3.20;;;;;;;-0.92;70.53;101715.68;108188;1277;72523;-71
2022/03/11 02:46:05;;;;;;;13.00;4.50;;;;;;;-0.91;70.34;101713.92;108280;1276;74110;-71
2022/03/11 02:48:35;;;;;;;10.70;5.60;;;;;;;-0.91;70.36;101713.04;108197;1277;62547;-69
2022/03/11 02:51:10;;;;;;;5.30;3.20;;;;;;;-0.92;70.30;101711.52;108280;1277;61683;-69
2022/03/11 02:53:40;;;;;;;11.20;4.10;;;;;;;-0.94;70.39;101717.02;108224;1275;77090;-70
2022/03/11 02:56:12;;;;;;;10.20;4.80;;;;;;;-0.97;70.19;101719.76;108297;1277;70191;-70
2022/03/11 02:58:40;;;;;;;11.10;5.30;;;;;;;-1.01;70.77;101717.16;108212;1273;72648;-70
2022/03/11 03:01:10;;;;;;;8.70;4.00;;;;;;;-1.05;70.50;101717.71;108256;1277;61273;-70
2022/03/11 03:03:39;;;;;;;4.40;2.40;;;;;;;-1.11;70.47;101717.13;108198;1277;60531;-69
2022/03/11 03:06:06;;;;;;;6.80;3.90;;;;;;;-1.16;71.03;101718.27;108247;1277;76775;-70
2022/03/11 03:08:33;;;;;;;10.20;4.20;;;;;;;-1.24;71.09;101719.31;108103;1268;72460;-70
2022/03/11 03:11:00;;;;;;;9.90;5.40;;;;;;;-1.27;71.25;101718.95;108234;1277;74731;-70
2022/03/11 03:13:27;;;;;;;6.90;3.80;;;;;;;-1.30;71.19;101722.04;108191;1277;62509;-70
2022/03/11 03:15:54;;;;;;;13.90;5.30;;;;;;;-1.34;71.40;101715.46;107990;1279;61737;-70
2022/03/11 03:18:20;;;;;;;10.10;4.80;;;;;;;-1.40;71.54;101717.27;108216;1277;75646;-70
2022/03/11 03:20:47;;;;;;;11.00;5.40;;;;;;;-1.45;71.62;101713.17;108224;1277;72817;-70
2022/03/11 03:23:14;;;;;;;8.30;4.40;;;;;;;-1.48;71.47;101710.77;108180;1277;73915;-69
2022/03/11 03:25:41;;;;;;;9.40;5.10;;;;;;;-1.54;71.89;101708.92;108028;1277;60202;-71
2022/03/11 03:28:12;;;;;;;7.40;4.30;;;;;;;-1.58;71.99;101710.20;108200;1277;61085;-71
2022/03/11 03:30:38;;;;;;;7.60;3.80;;;;;;;-1.63;72.21;101715.42;108195;1277;75902;-71
2022/03/11 03:33:13;;;;;;;10.40;5.40;;;;;;;-1.68;72.37;101713.23;108219;1277;59987;-70
2022/03/11 03:35:39;;;;;;;9.70;4.70;;;;;;;-1.74;72.37;101715.23;107963;1277;71676;-71
2022/03/11 03:38:06;;;;;;;10.00;4.60;;;;;;;-1.79;72.83;101715.98;108205;1277;61734;-69
2022/03/11 03:40:33;;;;;;;9.00;4.40;;;;;;;-1.84;72.88;101711.19;108216;1277;61418;-70
2022/03/11 03:43:02;;;;;;;9.50;3.70;;;;;;;-1.89;73.18;101710.55;108015;1278;76828;-69
2022/03/11 03:45:33;;;;;;;11.10;5.70;;;;;;;-1.93;73.42;101709.89;108201;1277;71193;-71
2022/03/11 03:48:00;;;;;;;10.90;4.90;;;;;;;-1.95;73.30;101703.90;108153;1277;74123;-69
2022/03/11 03:50:34;;;;;;;8.70;4.30;;;;;;;-1.97;73.53;101699.98;108025;1277;61482;-68
2022/03/11 03:53:03;;;;;;;9.80;4.40;;;;;;;-1.99;73.69;101700.23;108022;1279;60564;-70
2022/03/11 03:55:30;;;;;;;9.00;4.60;;;;;;;-2.02;73.70;101699.52;107873;1280;76803;-69
2022/03/11 03:57:57;;;;;;;10.20;4.30;;;;;;;-2.07;73.84;101698.52;108039;1279;70694;-69
2022/03/11 04:00:23;;;;;;;12.90;6.00;;;;;;;-2.08;74.42;101695.43;108052;1278;74009;-71
2022/03/11 04:02:51;;;;;;;7.10;4.00;;;;;;;-2.10;74.49;101694.47;107772;1281;61158;-70
2022/03/11 04:05:22;;;;;;;7.50;3.60;;;;;;;-2.11;74.51;101692.12;108023;1279;60201;-69
2022/03/11 04:07:49;;;;;;;9.50;4.80;;;;;;;-2.14;74.75;101687.05;108090;1278;75786;-72
2022/03/11 04:10:26;;;;;;;7.80;3.90;;;;;;;-2.16;74.72;101684.36;108077;1272;72557;-70
2022/03/11 04:12:54;;;;;;;9.10;4.60;;;;;;;-2.18;74.91;101679.10;108276;1277;71908;-69
2022/03/11 04:15:21;;;;;;;9.90;4.70;;;;;;;-2.20;75.31;101678.51;108258;1277;61635;-70
2022/03/11 04:17:47;;;;;;;9.90;3.70;;;;;;;-2.20;75.34;101678.33;108268;1277;59937;-70
2022/03/11 04:20:17;;;;;;;4.10;1.90;;;;;;;-2.19;75.10;101674.29;108266;1277;75698;-70
2022/03/11 04:22:45;;;;;;;9.00;3.70;;;;;;;-2.18;75.12;101674.39;108277;1277;71369;-70
2022/03/11 04:25:13;;;;;;;14.60;5.90;;;;;;;-2.17;75.02;101674.02;108195;1277;74548;-71
2022/03/11 04:27:41;;;;;;;9.30;4.00;;;;;;;-2.17;74.88;101667.94;108296;1277;60544;-70
2022/03/11 04:30:08;;;;;;;9.40;4.20;;;;;;;-2.17;74.86;101663.45;108240;1277;60669;-71
2022/03/11 04:32:34;;;;;;;6.30;2.60;;;;;;;-2.17;74.89;101657.91;108273;1276;76148;-70
2022/03/11 04:35:01;;;;;;;9.70;4.10;;;;;;;-2.18;74.89;101655.33;108263;1277;71368;-70
2022/03/11 04:37:31;;;;;;;11.90;5.70;;;;;;;-2.19;74.77;101649.49;108249;1277;74317;-72
2022/03/11 04:39:58;;;;;;;10.00;3.90;;;;;;;-2.19;74.78;101643.26;108035;1277;62207;-71
2022/03/11 04:42:33;;;;;;;13.00;5.20;;;;;;;-2.17;74.76;101642.46;108265;1277;61814;-72
2022/03/11 04:44:59;;;;;;;10.70;6.10;;;;;;;-2.17;74.49;101641.25;108281;1277;75882;-70
2022/03/11 04:47:27;;;;;;;13.70;5.50;;;;;;;-2.18;74.50;101639.05;108292;1277;70264;-70
2022/03/11 04:49:54;;;;;;;9.50;4.00;;;;;;;-2.18;74.40;101636.30;107833;1271;73976;-72
2022/03/11 04:52:21;;;;;;;10.60;4.60;;;;;;;-2.21;74.37;101635.90;107674;1281;59936;-72
2022/03/11 04:54:48;;;;;;;12.70;5.50;;;;;;;-2.23;74.49;101634.95;107835;1280;60587;-73
2022/03/11 04:57:14;;;;;;;14.30;5.10;;;;;;;-2.25;74.61;101633.84;107810;1280;77197;-73
2022/03/11 04:59:47;;;;;;;7.00;3.40;;;;;;;-2.26;74.54;101631.97;107503;1282;71561;-73
2022/03/11 05:02:13;;;;;;;8.70;4.90;;;;;;;-2.29;74.65;101629.32;107806;1280;72981;-71
2022/03/11 05:04:41;;;;;;;14.40;5.70;;;;;;;-2.29;74.57;101632.30;107680;1281;60126;-73
2022/03/11 05:07:08;;;;;;;8.50;4.80;;;;;;;-2.30;74.61;101629.92;107805;1281;60543;-71
2022/03/11 05:09:38;;;;;;;15.80;5.10;;;;;;;-2.30;74.56;101629.89;107485;1281;76288;-71
2022/03/11 05:12:05;;;;;;;10.40;4.20;;;;;;;-2.29;74.60;101622.92;107816;1281;72404;-70
2022/03/11 05:14:32;;;;;;;10.40;5.80;;;;;;;-2.29;74.31;101627.43;107827;1279;73986;-71
2022/03/11 05:17:05;;;;;;;9.80;4.30;;;;;;;-2.30;74.20;101623.32;107765;1281;59847;-71
2022/03/11 05:19:35;;;;;;;9.00;4.60;;;;;;;-2.31;74.29;101623.55;107638;1281;60333;-70
2022/03/11 05:22:02;;;;;;;10.80;4.90;;;;;;;-2.33;74.34;101625.19;107791;1280;75750;-71
2022/03/11 05:24:28;;;;;;;12.10;5.10;;;;;;;-2.36;74.41;101627.73;107644;1281;70286;-70
2022/03/11 05:26:57;;;;;;;10.70;4.90;;;;;;;-2.39;74.46;101630.99;107631;1282;72974;-72
2022/03/11 05:29:26;;;;;;;8.60;4.30;;;;;;;-2.41;74.39;101636.27;107498;1281;63279;-70
2022/03/11 05:31:53;;;;;;;10.10;4.20;;;;;;;-2.41;74.39;101636.63;107470;1282;60737;-70
2022/03/11 05:34:20;;;;;;;13.10;6.00;;;;;;;-2.42;74.47;101634.24;107763;1280;76917;-69
2022/03/11 05:36:47;;;;;;;10.20;5.20;;;;;;;-2.41;74.29;101635.95;107606;1281;59912;-70
2022/03/11 05:39:15;;;;;;;9.00;3.60;;;;;;;-2.40;74.07;101642.33;107781;1279;73983;-69
2022/03/11 05:41:42;;;;;;;9.30;4.70;;;;;;;-2.42;73.86;101646.73;107743;1279;60327;-71
2022/03/11 05:44:09;;;;;;;8.60;4.80;;;;;;;-2.44;73.89;101648.35;107743;1280;61762;-71
2022/03/11 05:46:37;;;;;;;9.30;4.10;;;;;;;-2.46;73.78;101651.39;107606;1281;76925;-71
2022/03/11 05:49:04;;;;;;;7.60;3.60;;;;;;;-2.48;73.85;101654.40;107676;1281;72354;-77
2022/03/11 05:51:31;;;;;;;11.40;5.60;;;;;;;-2.50;73.88;101659.33;107733;1279;74021;-73
2022/03/11 05:54:01;;;;;;;11.80;5.00;;;;;;;-2.51;73.88;101654.90;107941;1277;60617;-66
2022/03/11 05:56:27;;;;;;;5.80;2.70;;;;;;;-2.50;73.94;101656.77;108243;1277;60362;-67
2022/03/11 05:58:54;;;;;;;9.10;4.70;;;;;;;-2.49;73.84;101657.75;108226;1277;75907;-66
2022/03/11 06:01:21;;;;;;;6.90;4.90;;;;;;;-2.46;73.61;101658.84;108073;1277;72834;-66
2022/03/11 06:03:48;;;;;;;10.80;4.10;;;;;;;-2.44;73.47;101658.23;108258;1277;73832;-66
2022/03/11 06:06:15;;;;;;;12.50;5.80;;;;;;;-2.43;73.27;101661.13;108225;1276;60886;-67
2022/03/11 06:08:43;;;;;;;5.60;2.40;;;;;;;-2.42;73.22;101661.77;108046;1278;60628;-67
2022/03/11 06:11:14;;;;;;;10.10;5.00;;;;;;;-2.40;73.22;101658.95;108229;1276;76797;-67
2022/03/11 06:13:41;;;;;;;13.10;4.80;;;;;;;-2.38;73.00;101662.96;108242;1276;71044;-68
2022/03/11 06:16:08;;;;;;;6.90;1.90;;;;;;;-2.35;72.77;101667.22;108184;1277;72953;-67
2022/03/11 06:18:35;;;;;;;8.70;4.30;;;;;;;-2.33;72.70;101667.29;108248;1277;61894;-68
2022/03/11 06:21:01;;;;;;;9.80;4.60;;;;;;;-2.30;72.63;101668.37;108276;1276;59879;-67
2022/03/11 06:23:31;;;;;;;12.20;5.90;;;;;;;-2.28;72.31;101669.48;108237;1277;76825;-67
2022/03/11 06:25:58;;;;;;;10.40;5.70;;;;;;;-2.24;72.23;101665.86;108061;1278;72390;-67
2022/03/11 06:28:25;;;;;;;7.40;4.50;;;;;;;-2.19;71.85;101665.98;108150;1277;73982;-67
2022/03/11 06:30:51;;;;;;;11.60;5.60;;;;;;;-2.14;71.63;101665.91;108004;1280;60371;-66
2022/03/11 06:33:20;;;;;;;9.10;4.50;;;;;;;-2.09;71.72;101668.10;108099;1277;59935;-66
2022/03/11 06:35:48;;;;;;;11.60;4.70;;;;;;;-2.02;71.55;101664.66;108239;1276;76855;-66
2022/03/11 06:38:23;;;;;;;12.20;4.90;;;;;;;-1.94;71.42;101668.14;108257;1277;71458;-66
2022/03/11 06:40:50;;;;;;;10.00;5.10;;;;;;;-1.87;71.00;101668.69;108256;1277;73322;-66
2022/03/11 06:43:18;;;;;;;10.80;4.60;;;;;;;-1.80;70.91;101672.33;108218;1277;62398;-67
2022/03/11 06:45:45;;;;;;;9.90;4.50;;;;;;;-1.72;70.04;101675.09;108236;1277;61612;-67
2022/03/11 06:48:18;;;;;;;10.10;5.20;;;;;;;-1.64;69.84;101681.48;108090;1277;75171;-66
2022/03/11 06:50:45;;;;;;;11.70;4.50;;;;;;;-1.57;69.42;101681.48;108062;1277;71403;-67
2022/03/11 06:53:11;;;;;;;6.40;3.50;;;;;;;-1.49;69.05;101685.30;107982;1278;73054;-67
2022/03/11 06:55:38;;;;;;;11.70;5.40;;;;;;;-1.43;68.58;101683.60;108022;1280;60965;-67
2022/03/11 06:58:05;;;;;;;11.80;5.20;;;;;;;-1.36;68.29;101686.41;108005;1279;61650;-67
2022/03/11 07:00:32;;;;;;;7.10;2.90;;;;;;;-1.29;68.03;101685.72;107946;1279;75772;-68
2022/03/11 07:02:58;;;;;;;9.60;4.30;;;;;;;-1.21;67.56;101682.38;108020;1279;72727;-67
2022/03/11 07:05:25;;;;;;;9.40;4.60;;;;;;;-1.12;67.62;101684.89;107968;1278;73763;-67
2022/03/11 07:07:52;;;;;;;13.10;4.20;;;;;;;-1.03;67.26;101685.68;108000;1279;59684;-68
2022/03/11 07:10:19;;;;;;;7.30;3.80;;;;;;;-0.95;67.10;101682.66;108082;1278;59172;-68
2022/03/11 07:12:46;;;;;;;9.10;3.60;;;;;;;-0.88;66.25;101682.84;107908;1280;74530;-68
2022/03/11 07:15:13;;;;;;;14.30;6.20;;;;;;;-0.82;65.82;101683.90;108014;1280;71361;-70
2022/03/11 07:17:39;;;;;;;11.30;5.30;;;;;;;-0.75;65.46;101678.88;108020;1279;73025;-67
2022/03/11 07:20:07;;;;;;;9.10;4.00;;;;;;;-0.68;64.50;101684.63;108075;1278;59841;-68
2022/03/11 07:22:34;;;;;;;9.30;4.70;;;;;;;-0.60;64.34;101685.60;108081;1279;61922;-68
2022/03/11 07:25:03;;;;;;;5.50;3.10;;;;;;;-0.52;63.73;101686.25;107980;1279;75777;-68
2022/03/11 07:27:29;;;;;;;11.40;4.70;;;;;;;-0.44;62.95;101687.73;107969;1279;70329;-67
2022/03/11 07:29:57;;;;;;;7.90;4.80;;;;;;;-0.35;63.34;101688.01;108087;1279;72936;-67
2022/03/11 07:32:24;;;;;;;7.70;3.40;;;;;;;-0.28;63.11;101684.65;108039;1279;59620;-68
2022/03/11 07:34:52;;;;;;;9.60;4.20;;;;;;;-0.21;62.46;101688.48;107941;1278;60313;-68
2022/03/11 07:37:40;;;;;;;8.30;3.80;;;;;;;-0.14;62.10;101690.36;107937;1279;75799;-67
2022/03/11 07:40:16;;;;;;;11.10;5.10;;;;;;;-0.06;61.86;101688.52;103660;1280;5455772;-68
2022/03/11 07:42:44;;;;;;;9.90;4.50;;;;;;;0.02;61.57;101693.00;107594;1280;61810;-68
2022/03/11 07:45:12;;;;;;;10.50;4.40;;;;;;;0.11;60.98;101689.75;108044;1277;60581;-70
2022/03/11 07:47:41;;;;;;;12.90;6.20;;;;;;;0.18;60.50;101687.92;108021;1279;73514;-69
2022/03/11 07:50:11;;;;;;;10.70;5.10;;;;;;;0.27;60.31;101680.34;107928;1280;71546;-68
2022/03/11 07:52:38;;;;;;;9.00;4.60;;;;;;;0.35;59.29;101680.77;107726;1279;73007;-67
2022/03/11 07:55:07;;;;;;;12.70;4.50;;;;;;;0.45;58.90;101680.59;108062;1278;60295;-68
2022/03/11 07:57:36;;;;;;;11.70;5.20;;;;;;;0.51;58.14;101680.73;108142;1279;60323;-69
2022/03/11 08:00:10;;;;;;;9.60;4.70;;;;;;;0.57;57.22;101679.33;108040;1279;75970;-68
2022/03/11 08:02:37;;;;;;;10.40;4.10;;;;;;;0.67;57.66;101680.87;107988;1280;71521;-69
2022/03/11 08:05:04;;;;;;;8.70;4.40;;;;;;;0.76;57.26;101676.70;108049;1278;74752;-68
2022/03/11 08:07:32;;;;;;;7.90;3.30;;;;;;;0.87;57.36;101675.22;108083;1279;59977;-68
2022/03/11 08:09:59;;;;;;;12.80;5.20;;;;;;;0.97;56.96;101666.31;107699;1279;61837;-68
2022/03/11 08:12:25;;;;;;;10.00;4.90;;;;;;;1.06;56.35;101666.85;108126;1279;76179;-68
2022/03/11 08:15:06;;;;;;;11.30;4.80;;;;;;;1.14;55.79;101667.91;108067;1279;73165;-69
2022/03/11 08:17:37;;;;;;;8.30;4.50;;;;;;;1.17;55.20;101659.73;107821;1279;73709;-68
2022/03/11 08:20:06;;;;;;;6.30;3.80;;;;;;;1.27;54.05;101663.85;108050;1279;59867;-69
2022/03/11 08:22:34;;;;;;;9.00;4.10;;;;;;;1.31;53.80;101663.77;108107;1279;61658;-69
2022/03/11 08:25:04;;;;;;;9.30;4.20;;;;;;;1.39;54.19;101663.48;108060;1279;76883;-69
2022/03/11 08:27:31;;;;;;;10.70;3.90;;;;;;;1.47;53.36;101661.45;108106;1280;70377;-69
2022/03/11 08:29:58;;;;;;;9.60;4.50;;;;;;;1.54;53.39;101656.46;108030;1280;74106;-68
2022/03/11 08:32:28;;;;;;;10.20;3.80;;;;;;;1.65;53.43;101656.20;108094;1279;60193;-69
2022/03/11 08:34:55;;;;;;;8.10;4.50;;;;;;;1.71;52.08;101657.37;108091;1279;60351;-69
2022/03/11 08:37:30;;;;;;;10.30;3.80;;;;;;;1.76;51.65;101654.28;108113;1279;75706;-70
2022/03/11 08:40:01;;;;;;;10.20;4.10;;;;;;;1.79;50.62;101651.45;108061;1279;71483;-69
2022/03/11 08:42:27;;;;;;;12.30;4.10;;;;;;;1.83;50.40;101655.06;108091;1279;73105;-69
2022/03/11 08:44:54;;;;;;;8.70;4.60;;;;;;;1.89;50.27;101659.59;108072;1279;59937;-70
2022/03/11 08:47:21;;;;;;;11.40;3.60;;;;;;;1.98;50.85;101661.79;108096;1278;60710;-69
2022/03/11 08:49:47;;;;;;;9.30;4.60;;;;;;;2.12;50.41;101656.42;108027;1279;75837;-69
2022/03/11 08:52:14;;;;;;;12.30;4.90;;;;;;;2.24;49.56;101644.98;108102;1279;72424;-69
2022/03/11 08:54:41;;;;;;;7.50;3.80;;;;;;;2.35;49.63;101641.35;108094;1279;72972;-68
2022/03/11 08:57:08;;;;;;;10.90;4.10;;;;;;;2.47;49.50;101640.77;108204;1277;59972;-69
2022/03/11 08:59:34;;;;;;;9.50;4.50;;;;;;;2.55;48.58;101637.45;108205;1277;60585;-68
2022/03/11 09:02:02;;;;;;;8.80;3.50;;;;;;;2.65;48.35;101639.60;108184;1279;75769;-69
2022/03/11 09:04:32;;;;;;;7.40;4.10;;;;;;;2.71;47.49;101638.31;108216;1277;71267;-69
2022/03/11 09:06:59;;;;;;;6.70;3.90;;;;;;;2.77;47.59;101641.56;108071;1279;72575;-69
2022/03/11 09:09:32;;;;;;;9.00;4.30;;;;;;;2.84;46.92;101633.05;108171;1277;60136;-70
2022/03/11 09:12:00;;;;;;;10.60;4.80;;;;;;;2.91;46.31;101624.27;108090;1279;61391;-68
2022/03/11 09:14:36;;;;;;;7.60;3.70;;;;;;;2.97;46.06;101624.04;107843;1279;76899;-68
2022/03/11 09:17:20;;;;;;;10.70;4.70;;;;;;;3.02;45.65;101618.06;108201;1277;71963;-68
2022/03/11 09:19:51;;;;;;;9.70;4.70;;;;;;;3.15;46.05;101621.75;108173;1277;72976;-68
2022/03/11 09:22:39;;;;;;;10.40;4.70;;;;;;;3.27;45.68;101617.97;108172;1277;60984;-67
2022/03/11 09:25:07;;;;;;;10.60;4.00;;;;;;;3.41;45.45;101616.50;108196;1277;61692;-70
2022/03/11 09:27:34;;;;;;;8.90;4.80;;;;;;;3.54;45.13;101617.85;108204;1277;75869;-69
2022/03/11 09:30:01;;;;;;;10.30;5.70;;;;;;;3.67;45.13;101619.80;108080;1265;73012;-70
2022/03/11 09:32:28;;;;;;;7.10;2.90;;;;;;;3.79;45.12;101620.48;108260;1277;74381;-68
2022/03/11 09:34:59;;;;;;;12.10;5.20;;;;;;;3.90;44.89;101613.45;108265;1276;59879;-69
2022/03/11 09:37:27;;;;;;;8.20;4.70;;;;;;;3.98;44.39;101615.27;108233;1277;59943;-68
2022/03/11 09:39:54;;;;;;;10.00;3.90;;;;;;;4.07;44.75;101608.72;108154;1277;75867;-68
2022/03/11 09:42:21;;;;;;;7.80;4.30;;;;;;;4.16;43.87;101608.24;108234;1277;71350;-68
2022/03/11 09:44:52;;;;;;;8.40;4.20;;;;;;;4.19;42.69;101599.66;108184;1277;73332;-69
2022/03/11 09:47:30;;;;;;;11.00;4.50;;;;;;;4.16;42.83;101605.77;108198;1277;59897;-70
2022/03/11 09:49:57;;;;;;;13.00;4.80;;;;;;;4.24;43.20;101605.95;108214;1277;60477;-69
2022/03/11 09:52:24;;;;;;;6.90;3.60;;;;;;;4.31;42.23;101602.12;108099;1279;76909;-68
2022/03/11 09:54:51;;;;;;;12.40;3.90;;;;;;;4.36;41.84;101601.40;108193;1277;72349;-70
2022/03/11 09:57:22;;;;;;;10.10;4.70;;;;;;;4.42;42.00;101602.50;108035;1278;73757;-69
2022/03/11 09:59:50;;;;;;;9.40;3.60;;;;;;;4.51;42.19;101597.67;108209;1277;61014;-68
2022/03/11 10:02:23;;;;;;;10.10;4.60;;;;;;;4.61;42.01;101592.55;108143;1278;60430;-68
2022/03/11 10:04:57;;;;;;;14.70;5.00;;;;;;;4.73;42.07;101597.26;108042;1280;76788;-69
2022/03/11 10:07:44;;;;;;;9.00;4.30;;;;;;;4.83;41.62;101590.36;108041;1280;74080;-68
2022/03/11 10:10:19;;;;;;;12.60;4.70;;;;;;;4.92;41.51;101594.79;107979;1279;72727;-70
2022/03/11 10:13:10;;;;;;;9.70;4.30;;;;;;;5.00;41.05;101597.30;108049;1279;60116;-70
2022/03/11 10:15:44;;;;;;;8.10;4.00;;;;;;;5.10;41.25;101591.13;107979;1277;60791;-71
2022/03/11 10:18:14;;;;;;;10.40;4.30;;;;;;;5.18;40.80;101589.81;108093;1279;75693;-68
2022/03/11 10:20:41;;;;;;;11.60;5.20;;;;;;;5.22;40.42;101590.54;108214;1277;72463;-67
2022/03/11 10:23:11;;;;;;;10.00;4.20;;;;;;;5.27;40.79;101590.19;108171;1277;73025;-67
2022/03/11 10:25:38;;;;;;;9.00;4.40;;;;;;;5.33;40.46;101591.45;108042;1278;60021;-68
2022/03/11 10:28:14;;;;;;;9.30;4.00;;;;;;;5.42;40.45;101593.77;107884;1279;60896;-68
2022/03/11 10:30:42;;;;;;;8.40;4.40;;;;;;;5.48;39.79;101592.61;108011;1279;77957;-68
2022/03/11 10:33:12;;;;;;;7.30;4.10;;;;;;;5.56;39.95;101592.32;108198;1277;72575;-68
2022/03/11 10:35:43;;;;;;;8.80;4.10;;;;;;;5.66;39.72;101584.83;108157;1277;73933;-68
2022/03/11 10:38:12;;;;;;;9.70;4.30;;;;;;;5.75;39.58;101578.35;108181;1278;60870;-69
2022/03/11 10:40:51;;;;;;;9.90;4.00;;;;;;;5.87;39.76;101568.43;108153;1277;60722;-69
2022/03/11 10:43:20;;;;;;;23.70;4.70;;;;;;;5.98;38.77;101566.97;108202;1278;76877;-70
2022/03/11 10:46:11;;;;;;;7.70;4.10;;;;;;;6.06;38.78;101566.09;108028;1279;69913;-69
2022/03/11 10:48:52;;;;;;;9.30;4.90;;;;;;;6.10;38.83;101558.04;108092;1278;73487;-68
2022/03/11 10:51:22;;;;;;;8.50;4.50;;;;;;;6.14;38.90;101556.69;108236;1277;59961;-67
2022/03/11 10:53:52;;;;;;;9.80;4.20;;;;;;;6.25;39.21;101556.27;108193;1277;60784;-68
2022/03/11 10:56:36;;;;;;;7.70;3.40;;;;;;;6.37;38.80;101553.70;108162;1277;75691;-67
2022/03/11 10:59:04;;;;;;;7.10;3.90;;;;;;;6.49;38.42;101550.07;108188;1277;71638;-68
2022/03/11 11:01:38;;;;;;;8.30;3.90;;;;;;;6.59;38.01;101547.73;108246;1277;71863;-68
2022/03/11 11:04:10;;;;;;;12.50;4.10;;;;;;;6.67;37.33;101547.23;108203;1277;60974;-69
2022/03/11 11:06:37;;;;;;;10.60;4.60;;;;;;;6.71;36.55;101543.30;108239;1278;60732;-68
2022/03/11 11:09:06;;;;;;;13.50;4.60;;;;;;;6.75;36.66;101538.10;108171;1277;77068;-68
2022/03/11 11:11:34;;;;;;;10.90;4.90;;;;;;;6.78;36.44;101534.17;108220;1274;72407;-69
2022/03/11 11:14:07;;;;;;;10.30;3.40;;;;;;;6.84;36.09;101521.66;108155;1277;74526;-68
2022/03/11 11:16:42;;;;;;;13.20;4.90;;;;;;;6.99;36.56;101517.30;108190;1278;59852;-70
2022/03/11 11:19:09;;;;;;;;;;;;;;;7.11;36.10;101516.58;107902;1277;60771;-68
2022/03/11 11:21:38;;;;;;;6.50;3.40;;;;;;;7.19;35.40;101511.67;108206;1277;59822;-68
2022/03/11 11:24:10;;;;;;;5.60;2.80;;;;;;;7.28;35.30;101508.04;108211;1277;71549;-70
2022/03/11 11:26:39;;;;;;;7.70;3.60;;;;;;;7.38;34.96;101508.40;108179;1278;74129;-69